Aviation Digital Data Service (ADDS)

Output produced by METARs form (0416 UTC 19 August 2019)
found at http://www.aviationweather.gov/metar/data/
 
METAR text: OMAA 190400Z 16007KT CAVOK 36/22 Q1002 NOSIG
Conditions at: OMAA (ABU DHABI INTL , AE) observed 0400 UTC 19 August 2019
Temperature: 36.0°C (97°F)
Dewpoint: 22.0°C (72°F) [RH = 45%]
Pressure (altimeter): 29.59 inches Hg (1002.0 mb)
Winds: from the SSE (160 degrees) at 8 MPH (7 knots; 3.6 m/s)
Visibility: 6 or more miles (10+ km)
Ceiling: ceiling and visibility are OK
Clouds: unknown
Weather: no significant weather observed at this time

METAR text: OMAA 190300Z 11004KT 080V140 CAVOK 35/21 Q1002 NOSIG
Conditions at: OMAA (ABU DHABI INTL , AE) observed 0300 UTC 19 August 2019
Temperature: 35.0°C (95°F)
Dewpoint: 21.0°C (70°F) [RH = 44%]
Pressure (altimeter): 29.59 inches Hg (1002.0 mb)
Winds: from the ESE (110 degrees) at 5 MPH (4 knots; 2.1 m/s)
Visibility: 6 or more miles (10+ km)
Ceiling: ceiling and visibility are OK
Clouds: unknown
Weather: no significant weather observed at this time

METAR text: OMAA 190200Z 11010KT 040V130 9000 NSC 34/23 Q1001 NOSIG
Conditions at: OMAA (ABU DHABI INTL , AE) observed 0200 UTC 19 August 2019
Temperature: 34.0°C (93°F)
Dewpoint: 23.0°C (73°F) [RH = 53%]
Pressure (altimeter): 29.56 inches Hg (1001.0 mb)
Winds: from the ESE (110 degrees) at 12 MPH (10 knots; 5.1 m/s)
Visibility: 6 miles ( 9 km)
Ceiling: at least 12,000 feet AGL
Clouds: sky clear below 12,000 feet AGL
Weather: no significant weather observed at this time

METAR text: OMAA 190123Z 13010KT CAVOK 35/24 Q1001 NOSIG
Conditions at: OMAA (ABU DHABI INTL , AE) observed 0123 UTC 19 August 2019
Temperature: 35.0°C (95°F)
Dewpoint: 24.0°C (75°F) [RH = 53%]
Pressure (altimeter): 29.56 inches Hg (1001.0 mb)
Winds: from the SE (130 degrees) at 12 MPH (10 knots; 5.1 m/s)
Visibility: 6 or more miles (10+ km)
Ceiling: ceiling and visibility are OK
Clouds: unknown
Weather: no significant weather observed at this time

METAR text: OMAA 190100Z 03011KT CAVOK 35/24 Q1000 BECMG 10010KT
Conditions at: OMAA (ABU DHABI INTL , AE) observed 0100 UTC 19 August 2019
Temperature: 35.0°C (95°F)
Dewpoint: 24.0°C (75°F) [RH = 53%]
Pressure (altimeter): 29.53 inches Hg (1000.0 mb)
Winds: from the NNE (30 degrees) at 13 MPH (11 knots; 5.7 m/s)
Visibility: 6 or more miles (10+ km)
Ceiling: ceiling and visibility are OK
Clouds: unknown
Weather: no significant weather observed at this time

METAR text: OMAA 190000Z 01008KT CAVOK 35/27 Q0999 BECMG 07006KT
Conditions at: OMAA (ABU DHABI INTL , AE) observed 0000 UTC 19 August 2019
Temperature: 35.0°C (95°F)
Dewpoint: 27.0°C (81°F) [RH = 63%]
Pressure (altimeter): 29.50 inches Hg (999.0 mb)
Winds: from the N (10 degrees) at 9 MPH (8 knots; 4.1 m/s)
Visibility: 6 or more miles (10+ km)
Ceiling: ceiling and visibility are OK
Clouds: unknown
Weather: no significant weather observed at this time

METAR text: OMAA 182300Z 36008KT 260V030 CAVOK 35/28 Q0999 BECMG 06006KT
Conditions at: OMAA (ABU DHABI INTL , AE) observed 2300 UTC 18 August 2019
Temperature: 35.0°C (95°F)
Dewpoint: 28.0°C (82°F) [RH = 67%]
Pressure (altimeter): 29.50 inches Hg (999.0 mb)
Winds: from the N (360 degrees) at 9 MPH (8 knots; 4.1 m/s)
Visibility: 6 or more miles (10+ km)
Ceiling: ceiling and visibility are OK
Clouds: unknown
Weather: no significant weather observed at this time

METAR text: OMAA 182200Z 34009KT 9000 NSC 35/28 Q1000 NOSIG
Conditions at: OMAA (ABU DHABI INTL , AE) observed 2200 UTC 18 August 2019
Temperature: 35.0°C (95°F)
Dewpoint: 28.0°C (82°F) [RH = 67%]
Pressure (altimeter): 29.53 inches Hg (1000.0 mb)
Winds: from the NNW (340 degrees) at 10 MPH (9 knots; 4.6 m/s)
Visibility: 6 miles ( 9 km)
Ceiling: at least 12,000 feet AGL
Clouds: sky clear below 12,000 feet AGL
Weather: no significant weather observed at this time

METAR text: OMAA 182100Z 33011KT 9000 NSC 35/29 Q1000 NOSIG
Conditions at: OMAA (ABU DHABI INTL , AE) observed 2100 UTC 18 August 2019
Temperature: 35.0°C (95°F)
Dewpoint: 29.0°C (84°F) [RH = 71%]
Pressure (altimeter): 29.53 inches Hg (1000.0 mb)
Winds: from the NNW (330 degrees) at 13 MPH (11 knots; 5.7 m/s)
Visibility: 6 miles ( 9 km)
Ceiling: at least 12,000 feet AGL
Clouds: sky clear below 12,000 feet AGL
Weather: no significant weather observed at this time

METAR text: OMAA 182000Z 33010KT 9000 NSC 35/28 Q1000 NOSIG
Conditions at: OMAA (ABU DHABI INTL , AE) observed 2000 UTC 18 August 2019
Temperature: 35.0°C (95°F)
Dewpoint: 28.0°C (82°F) [RH = 67%]
Pressure (altimeter): 29.53 inches Hg (1000.0 mb)
Winds: from the NNW (330 degrees) at 12 MPH (10 knots; 5.1 m/s)
Visibility: 6 miles ( 9 km)
Ceiling: at least 12,000 feet AGL
Clouds: sky clear below 12,000 feet AGL
Weather: no significant weather observed at this time

METAR text: OMAA 181900Z 34009KT 250V010 9000 NSC 36/29 Q1001 NOSIG
Conditions at: OMAA (ABU DHABI INTL , AE) observed 1900 UTC 18 August 2019
Temperature: 36.0°C (97°F)
Dewpoint: 29.0°C (84°F) [RH = 67%]
Pressure (altimeter): 29.56 inches Hg (1001.0 mb)
Winds: from the NNW (340 degrees) at 10 MPH (9 knots; 4.6 m/s)
Visibility: 6 miles ( 9 km)
Ceiling: at least 12,000 feet AGL
Clouds: sky clear below 12,000 feet AGL
Weather: no significant weather observed at this time

METAR text: OMAA 181800Z 31008KT 9000 NSC 36/27 Q1000 BECMG 01008KT
Conditions at: OMAA (ABU DHABI INTL , AE) observed 1800 UTC 18 August 2019
Temperature: 36.0°C (97°F)
Dewpoint: 27.0°C (81°F) [RH = 60%]
Pressure (altimeter): 29.53 inches Hg (1000.0 mb)
Winds: from the NW (310 degrees) at 9 MPH (8 knots; 4.1 m/s)
Visibility: 6 miles ( 9 km)
Ceiling: at least 12,000 feet AGL
Clouds: sky clear below 12,000 feet AGL
Weather: no significant weather observed at this time

METAR text: OMAA 181700Z 30007KT 9000 NSC 36/27 Q1000 BECMG 36008KT
Conditions at: OMAA (ABU DHABI INTL , AE) observed 1700 UTC 18 August 2019
Temperature: 36.0°C (97°F)
Dewpoint: 27.0°C (81°F) [RH = 60%]
Pressure (altimeter): 29.53 inches Hg (1000.0 mb)
Winds: from the WNW (300 degrees) at 8 MPH (7 knots; 3.6 m/s)
Visibility: 6 miles ( 9 km)
Ceiling: at least 12,000 feet AGL
Clouds: sky clear below 12,000 feet AGL
Weather: no significant weather observed at this time

METAR text: OMAA 181600Z 28007KT 260V320 9000 NSC 37/26 Q1000 NOSIG
Conditions at: OMAA (ABU DHABI INTL , AE) observed 1600 UTC 18 August 2019
Temperature: 37.0°C (99°F)
Dewpoint: 26.0°C (79°F) [RH = 54%]
Pressure (altimeter): 29.53 inches Hg (1000.0 mb)
Winds: from the W (280 degrees) at 8 MPH (7 knots; 3.6 m/s)
Visibility: 6 miles ( 9 km)
Ceiling: at least 12,000 feet AGL
Clouds: sky clear below 12,000 feet AGL
Weather: no significant weather observed at this time

METAR text: OMAA 181511Z 31006KT 270V340 8000 FEW035 37/26 Q1000 NOSIG
Conditions at: OMAA (ABU DHABI INTL , AE) observed 1511 UTC 18 August 2019
Temperature: 37.0°C (99°F)
Dewpoint: 26.0°C (79°F) [RH = 54%]
Pressure (altimeter): 29.53 inches Hg (1000.0 mb)
Winds: from the NW (310 degrees) at 7 MPH (6 knots; 3.1 m/s)
Visibility: 5 miles ( 8 km)
Ceiling: at least 12,000 feet AGL
Clouds: few clouds at 3500 feet AGL
Weather: no significant weather observed at this time

METAR text: OMAA 181502Z 24010KT 8000 FEW035 37/26 Q1000 BECMG 36008KT
Conditions at: OMAA (ABU DHABI INTL , AE) observed 1502 UTC 18 August 2019
Temperature: 37.0°C (99°F)
Dewpoint: 26.0°C (79°F) [RH = 54%]
Pressure (altimeter): 29.53 inches Hg (1000.0 mb)
Winds: from the WSW (240 degrees) at 12 MPH (10 knots; 5.1 m/s)
Visibility: 5 miles ( 8 km)
Ceiling: at least 12,000 feet AGL
Clouds: few clouds at 3500 feet AGL
Weather: no significant weather observed at this time

METAR text: OMAA 181500Z 35011KT 8000 NSC 37/26 Q0999 NOSIG
Conditions at: OMAA (ABU DHABI INTL , AE) observed 1500 UTC 18 August 2019
Temperature: 37.0°C (99°F)
Dewpoint: 26.0°C (79°F) [RH = 54%]
Pressure (altimeter): 29.50 inches Hg (999.0 mb)
Winds: from the N (350 degrees) at 13 MPH (11 knots; 5.7 m/s)
Visibility: 5 miles ( 8 km)
Ceiling: at least 12,000 feet AGL
Clouds: sky clear below 12,000 feet AGL
Weather: no significant weather observed at this time

METAR text: OMAA 181400Z 34016KT 8000 NSC 37/28 Q0998 NOSIG
Conditions at: OMAA (ABU DHABI INTL , AE) observed 1400 UTC 18 August 2019
Temperature: 37.0°C (99°F)
Dewpoint: 28.0°C (82°F) [RH = 60%]
Pressure (altimeter): 29.47 inches Hg (998.0 mb)
Winds: from the NNW (340 degrees) at 18 MPH (16 knots; 8.2 m/s)
Visibility: 5 miles ( 8 km)
Ceiling: at least 12,000 feet AGL
Clouds: sky clear below 12,000 feet AGL
Weather: no significant weather observed at this time

METAR text: OMAA 181300Z 34016KT 7000 NSC 38/29 Q0997 NOSIG
Conditions at: OMAA (ABU DHABI INTL , AE) observed 1300 UTC 18 August 2019
Temperature: 38.0°C (100°F)
Dewpoint: 29.0°C (84°F) [RH = 60%]
Pressure (altimeter): 29.44 inches Hg (997.0 mb)
Winds: from the NNW (340 degrees) at 18 MPH (16 knots; 8.2 m/s)
Visibility: 4 miles ( 7 km)
Ceiling: at least 12,000 feet AGL
Clouds: sky clear below 12,000 feet AGL
Weather: no significant weather observed at this time

METAR text: OMAA 181200Z 33014KT 7000 NSC 38/29 Q0998 NOSIG
Conditions at: OMAA (ABU DHABI INTL , AE) observed 1200 UTC 18 August 2019
Temperature: 38.0°C (100°F)
Dewpoint: 29.0°C (84°F) [RH = 60%]
Pressure (altimeter): 29.47 inches Hg (998.0 mb)
Winds: from the NNW (330 degrees) at 16 MPH (14 knots; 7.2 m/s)
Visibility: 4 miles ( 7 km)
Ceiling: at least 12,000 feet AGL
Clouds: sky clear below 12,000 feet AGL
Weather: no significant weather observed at this time

METAR text: OMAA 181100Z 33013KT 8000 NSC 38/29 Q0998 NOSIG
Conditions at: OMAA (ABU DHABI INTL , AE) observed 1100 UTC 18 August 2019
Temperature: 38.0°C (100°F)
Dewpoint: 29.0°C (84°F) [RH = 60%]
Pressure (altimeter): 29.47 inches Hg (998.0 mb)
Winds: from the NNW (330 degrees) at 15 MPH (13 knots; 6.7 m/s)
Visibility: 5 miles ( 8 km)
Ceiling: at least 12,000 feet AGL
Clouds: sky clear below 12,000 feet AGL
Weather: no significant weather observed at this time

METAR text: OMAA 181000Z 31014KT 7000 NSC 41/26 Q0998 WS ALL RWY NOSIG
Conditions at: OMAA (ABU DHABI INTL , AE) observed 1000 UTC 18 August 2019
Temperature: 41.0°C (106°F)
Dewpoint: 26.0°C (79°F) [RH = 43%]
Pressure (altimeter): 29.47 inches Hg (998.0 mb)
Winds: from the NW (310 degrees) at 16 MPH (14 knots; 7.2 m/s)
Visibility: 4 miles ( 7 km)
Ceiling: at least 12,000 feet AGL
Clouds: sky clear below 12,000 feet AGL
Weather: no significant weather observed at this time

METAR text: OMAA 180942Z 31010KT 250V340 8000 NSC 43/25 Q0998 WS ALL RWY NOSIG
Conditions at: OMAA (ABU DHABI INTL , AE) observed 0942 UTC 18 August 2019
Temperature: 43.0°C (109°F)
Dewpoint: 25.0°C (77°F) [RH = 37%]
Pressure (altimeter): 29.47 inches Hg (998.0 mb)
Winds: from the NW (310 degrees) at 12 MPH (10 knots; 5.1 m/s)
Visibility: 5 miles ( 8 km)
Ceiling: at least 12,000 feet AGL
Clouds: sky clear below 12,000 feet AGL
Weather: no significant weather observed at this time

METAR text: OMAA 180900Z 14005KT 080V230 8000 NSC 43/20 Q0999 BECMG 30010KT
Conditions at: OMAA (ABU DHABI INTL , AE) observed 0900 UTC 18 August 2019
Temperature: 43.0°C (109°F)
Dewpoint: 20.0°C (68°F) [RH = 27%]
Pressure (altimeter): 29.50 inches Hg (999.0 mb)
Winds: from the SE (140 degrees) at 6 MPH (5 knots; 2.6 m/s)
Visibility: 5 miles ( 8 km)
Ceiling: at least 12,000 feet AGL
Clouds: sky clear below 12,000 feet AGL
Weather: no significant weather observed at this time

METAR text: OMAA 180800Z VRB05KT 8000 NSC 41/22 Q1000 BECMG 30010KT
Conditions at: OMAA (ABU DHABI INTL , AE) observed 0800 UTC 18 August 2019
Temperature: 41.0°C (106°F)
Dewpoint: 22.0°C (72°F) [RH = 34%]
Pressure (altimeter): 29.53 inches Hg (1000.0 mb)
Winds: variable direction winds at 6 MPH (5 knots; 2.6 m/s)
Visibility: 5 miles ( 8 km)
Ceiling: at least 12,000 feet AGL
Clouds: sky clear below 12,000 feet AGL
Weather: no significant weather observed at this time

METAR text: OMAA 180700Z 17008KT 120V220 7000 NSC 39/19 Q1000 BECMG 30010KT
Conditions at: OMAA (ABU DHABI INTL , AE) observed 0700 UTC 18 August 2019
Temperature: 39.0°C (102°F)
Dewpoint: 19.0°C (66°F) [RH = 31%]
Pressure (altimeter): 29.53 inches Hg (1000.0 mb)
Winds: from the S (170 degrees) at 9 MPH (8 knots; 4.1 m/s)
Visibility: 4 miles ( 7 km)
Ceiling: at least 12,000 feet AGL
Clouds: sky clear below 12,000 feet AGL
Weather: no significant weather observed at this time

METAR text: OMAA 180600Z 17006KT 120V260 5000 DU NSC 38/18 Q1000 BECMG 7000 NSW
Conditions at: OMAA (ABU DHABI INTL , AE) observed 0600 UTC 18 August 2019
Temperature: 38.0°C (100°F)
Dewpoint: 18.0°C (64°F) [RH = 31%]
Pressure (altimeter): 29.53 inches Hg (1000.0 mb)
Winds: from the S (170 degrees) at 7 MPH (6 knots; 3.1 m/s)
Visibility: 3 miles ( 5 km)
Ceiling: at least 12,000 feet AGL
Clouds: sky clear below 12,000 feet AGL
Weather: DU  (widespread dust)

METAR text: OMAA 180500Z 13009KT 4000 DU NSC 37/18 Q1000 NOSIG
Conditions at: OMAA (ABU DHABI INTL , AE) observed 0500 UTC 18 August 2019
Temperature: 37.0°C (99°F)
Dewpoint: 18.0°C (64°F) [RH = 33%]
Pressure (altimeter): 29.53 inches Hg (1000.0 mb)
Winds: from the SE (130 degrees) at 10 MPH (9 knots; 4.6 m/s)
Visibility: 2.49 miles (4.01 km)
Ceiling: at least 12,000 feet AGL
Clouds: sky clear below 12,000 feet AGL
Weather: DU  (widespread dust)

METAR text: OMAA 180435Z 12008KT 090V150 4500 DU NSC 37/18 Q1000 NOSIG
Conditions at: OMAA (ABU DHABI INTL , AE) observed 0435 UTC 18 August 2019
Temperature: 37.0°C (99°F)
Dewpoint: 18.0°C (64°F) [RH = 33%]
Pressure (altimeter): 29.53 inches Hg (1000.0 mb)
Winds: from the ESE (120 degrees) at 9 MPH (8 knots; 4.1 m/s)
Visibility: 2.80 miles (4.51 km)
Ceiling: at least 12,000 feet AGL
Clouds: sky clear below 12,000 feet AGL
Weather: DU  (widespread dust)

METAR text: OMAA 180400Z 11007KT 7000 NSC 34/28 Q1000 NOSIG
Conditions at: OMAA (ABU DHABI INTL , AE) observed 0400 UTC 18 August 2019
Temperature: 34.0°C (93°F)
Dewpoint: 28.0°C (82°F) [RH = 71%]
Pressure (altimeter): 29.53 inches Hg (1000.0 mb)
Winds: from the ESE (110 degrees) at 8 MPH (7 knots; 3.6 m/s)
Visibility: 4 miles ( 7 km)
Ceiling: at least 12,000 feet AGL
Clouds: sky clear below 12,000 feet AGL
Weather: no significant weather observed at this time

METAR text: OMAA 180300Z 05003KT 7000 NSC 34/28 Q0999 NOSIG
Conditions at: OMAA (ABU DHABI INTL , AE) observed 0300 UTC 18 August 2019
Temperature: 34.0°C (93°F)
Dewpoint: 28.0°C (82°F) [RH = 71%]
Pressure (altimeter): 29.50 inches Hg (999.0 mb)
Winds: from the NE (50 degrees) at 3 MPH (3 knots; 1.5 m/s)
Visibility: 4 miles ( 7 km)
Ceiling: at least 12,000 feet AGL
Clouds: sky clear below 12,000 feet AGL
Weather: no significant weather observed at this time

METAR text: OMAA 180200Z 08003KT 040V110 7000 NSC 34/28 Q0999 NOSIG
Conditions at: OMAA (ABU DHABI INTL , AE) observed 0200 UTC 18 August 2019
Temperature: 34.0°C (93°F)
Dewpoint: 28.0°C (82°F) [RH = 71%]
Pressure (altimeter): 29.50 inches Hg (999.0 mb)
Winds: from the E (80 degrees) at 3 MPH (3 knots; 1.5 m/s)
Visibility: 4 miles ( 7 km)
Ceiling: at least 12,000 feet AGL
Clouds: sky clear below 12,000 feet AGL
Weather: no significant weather observed at this time

METAR text: OMAA 180100Z 32006KT 8000 NSC 34/28 Q0998 NOSIG
Conditions at: OMAA (ABU DHABI INTL , AE) observed 0100 UTC 18 August 2019
Temperature: 34.0°C (93°F)
Dewpoint: 28.0°C (82°F) [RH = 71%]
Pressure (altimeter): 29.47 inches Hg (998.0 mb)
Winds: from the NW (320 degrees) at 7 MPH (6 knots; 3.1 m/s)
Visibility: 5 miles ( 8 km)
Ceiling: at least 12,000 feet AGL
Clouds: sky clear below 12,000 feet AGL
Weather: no significant weather observed at this time

METAR text: OMAA 180000Z 29006KT 8000 NSC 34/28 Q0997 NOSIG
Conditions at: OMAA (ABU DHABI INTL , AE) observed 0000 UTC 18 August 2019
Temperature: 34.0°C (93°F)
Dewpoint: 28.0°C (82°F) [RH = 71%]
Pressure (altimeter): 29.44 inches Hg (997.0 mb)
Winds: from the WNW (290 degrees) at 7 MPH (6 knots; 3.1 m/s)
Visibility: 5 miles ( 8 km)
Ceiling: at least 12,000 feet AGL
Clouds: sky clear below 12,000 feet AGL
Weather: no significant weather observed at this time

METAR text: OMAA 172300Z 32005KT 270V010 CAVOK 34/29 Q0997 NOSIG
Conditions at: OMAA (ABU DHABI INTL , AE) observed 2300 UTC 17 August 2019
Temperature: 34.0°C (93°F)
Dewpoint: 29.0°C (84°F) [RH = 75%]
Pressure (altimeter): 29.44 inches Hg (997.0 mb)
Winds: from the NW (320 degrees) at 6 MPH (5 knots; 2.6 m/s)
Visibility: 6 or more miles (10+ km)
Ceiling: ceiling and visibility are OK
Clouds: unknown
Weather: no significant weather observed at this time

METAR text: OMAA 172200Z 31004KT CAVOK 34/27 Q0997 NOSIG
Conditions at: OMAA (ABU DHABI INTL , AE) observed 2200 UTC 17 August 2019
Temperature: 34.0°C (93°F)
Dewpoint: 27.0°C (81°F) [RH = 67%]
Pressure (altimeter): 29.44 inches Hg (997.0 mb)
Winds: from the NW (310 degrees) at 5 MPH (4 knots; 2.1 m/s)
Visibility: 6 or more miles (10+ km)
Ceiling: ceiling and visibility are OK
Clouds: unknown
Weather: no significant weather observed at this time

METAR text: OMAA 172100Z 32004KT CAVOK 34/28 Q0997 NOSIG
Conditions at: OMAA (ABU DHABI INTL , AE) observed 2100 UTC 17 August 2019
Temperature: 34.0°C (93°F)
Dewpoint: 28.0°C (82°F) [RH = 71%]
Pressure (altimeter): 29.44 inches Hg (997.0 mb)
Winds: from the NW (320 degrees) at 5 MPH (4 knots; 2.1 m/s)
Visibility: 6 or more miles (10+ km)
Ceiling: ceiling and visibility are OK
Clouds: unknown
Weather: no significant weather observed at this time

METAR text: OMAA 172000Z 34004KT 9000 NSC 35/27 Q0997 NOSIG
Conditions at: OMAA (ABU DHABI INTL , AE) observed 2000 UTC 17 August 2019
Temperature: 35.0°C (95°F)
Dewpoint: 27.0°C (81°F) [RH = 63%]
Pressure (altimeter): 29.44 inches Hg (997.0 mb)
Winds: from the NNW (340 degrees) at 5 MPH (4 knots; 2.1 m/s)
Visibility: 6 miles ( 9 km)
Ceiling: at least 12,000 feet AGL
Clouds: sky clear below 12,000 feet AGL
Weather: no significant weather observed at this time

METAR text: OMAA 171900Z 36005KT 320V070 9000 NSC 35/27 Q0997 NOSIG
Conditions at: OMAA (ABU DHABI INTL , AE) observed 1900 UTC 17 August 2019
Temperature: 35.0°C (95°F)
Dewpoint: 27.0°C (81°F) [RH = 63%]
Pressure (altimeter): 29.44 inches Hg (997.0 mb)
Winds: from the N (360 degrees) at 6 MPH (5 knots; 2.6 m/s)
Visibility: 6 miles ( 9 km)
Ceiling: at least 12,000 feet AGL
Clouds: sky clear below 12,000 feet AGL
Weather: no significant weather observed at this time

METAR text: OMAA 171800Z 03007KT 9000 NSC 35/27 Q0997 NOSIG
Conditions at: OMAA (ABU DHABI INTL , AE) observed 1800 UTC 17 August 2019
Temperature: 35.0°C (95°F)
Dewpoint: 27.0°C (81°F) [RH = 63%]
Pressure (altimeter): 29.44 inches Hg (997.0 mb)
Winds: from the NNE (30 degrees) at 8 MPH (7 knots; 3.6 m/s)
Visibility: 6 miles ( 9 km)
Ceiling: at least 12,000 feet AGL
Clouds: sky clear below 12,000 feet AGL
Weather: no significant weather observed at this time

METAR text: OMAA 171700Z 03008KT 8000 NSC 35/28 Q0997 NOSIG
Conditions at: OMAA (ABU DHABI INTL , AE) observed 1700 UTC 17 August 2019
Temperature: 35.0°C (95°F)
Dewpoint: 28.0°C (82°F) [RH = 67%]
Pressure (altimeter): 29.44 inches Hg (997.0 mb)
Winds: from the NNE (30 degrees) at 9 MPH (8 knots; 4.1 m/s)
Visibility: 5 miles ( 8 km)
Ceiling: at least 12,000 feet AGL
Clouds: sky clear below 12,000 feet AGL
Weather: no significant weather observed at this time

Forecast for: OMAA (ABU DHABI INTL , AE)
Text: TAF OMAA 182300Z 1900/2006 36008KT 8000 NSC
Forecast period: 0000 UTC 19 August 2019 to 0600 UTC 20 August 2019
Forecast type: FROM: standard forecast or significant change
Winds: from the N (360 degrees) at 9 MPH (8 knots; 4.1 m/s)
Visibility: 5 miles (8 km)
Ceiling: unknown
Clouds: missing
Weather: no significant weather forecast for this period
Text: BECMG 1900/1902 06006KT
Forecast period: 0000 to 0200 UTC 19 August 2019
Forecast type: BECOMING: Conditions expected to become as follows by 0200 UTC 19 August 2019
Winds: from the ENE (60 degrees) at 7 MPH (6 knots; 3.1 m/s)
Visibility: 5 miles (8 km)
Ceiling: unknown
Clouds: missing
Weather: no significant weather forecast for this period
Text: BECMG 1902/1904 16012KT
Forecast period: 0200 to 1000 UTC 19 August 2019
Forecast type: BECOMING: Conditions expected to become as follows by 0400 UTC 19 August 2019
Winds: from the SSE (160 degrees) at 14 MPH (12 knots; 6.2 m/s)
Visibility: 5 miles (8 km)
Ceiling: unknown
Clouds: missing
Weather: no significant weather forecast for this period
Text: PROB30
Forecast period: 0300 to 0900 UTC 19 August 2019
Forecast type: TEMPORARY: The following changes expected for less than half the time period
Visibility: 2.49 miles (4.01 km)
Ceiling: unknown
Clouds: missing
Weather: DU  (widespread dust)
Text: TEMPO 1903/1909 4000 DU
Forecast period: 1000 to 1800 UTC 19 August 2019
Forecast type: BECOMING: Conditions expected to become as follows by 1200 UTC 19 August 2019
Winds: from the NNW (330 degrees) at 14 MPH (12 knots; 6.2 m/s)
Visibility: 5 miles (8 km)
Ceiling: unknown
Clouds: missing
Weather: no significant weather forecast for this period
Text: BECMG 1910/1912 33012KT
Forecast period: 1800 UTC 19 August 2019 to 0100 UTC 20 August 2019
Forecast type: BECOMING: Conditions expected to become as follows by 2000 UTC 19 August 2019
Winds: from the NE (50 degrees) at 9 MPH (8 knots; 4.1 m/s)
Visibility: 5 miles (8 km)
Ceiling: unknown
Clouds: missing
Weather: no significant weather forecast for this period
Text: BECMG 1918/1920 05008KT
Forecast period: 0100 to 0600 UTC 20 August 2019
Forecast type: BECOMING: Conditions expected to become as follows by 0300 UTC 20 August 2019
Winds: from the SSE (150 degrees) at 14 MPH (12 knots; 6.2 m/s)
Visibility: 5 miles (8 km)
Ceiling: unknown
Clouds: missing
Weather: no significant weather forecast for this period
Text: BECMG 2001/2003 15012KT
Forecast period: 0300 to 0600 UTC 20 August 2019
Forecast type: TEMPORARY: The following changes expected for less than half the time period
Visibility: 2.49 miles (4.01 km)
Ceiling: unknown
Clouds: missing
Weather: DU  (widespread dust)